x

Southeast Bering Sea -205nm Wnw Of Dutch Harbor, Ak (46073) Wave Buoy

7:50pm - Fri 19th Sep 2014 All times are UTC.

  • Sig Wave height 7.5ft
  • Swell Direction
  • Peak Period 8s
  • Average Period 6s
  • Wind
    16mph, 18mph gusts
  • Sea Temp 51°f
  • Air Temp 51°f
  • Sea Pressure 1010.8mb

More Historic Weather Station data

Upgrade to MSW Pro to gain access to the past 30 days of data for over 8000 Wavebouys and Weather Stations around the globe.

Join Pro

Comparision Forecast

View Surf forecast
   
Fri 09/19 7:50pm 7.5ft 8s 6s 16 18 mph 1010.8mb 51f 51f
6:50pm 7ft 8s 6s 18 20 mph 1010.6mb 51f 51f
5:50pm 7.5ft 9s 6s 20 25 mph 1010.2mb 51f 51f
4:50pm 7.5ft 9s 6s 18 25 mph 1009.7mb 51f 51f
3:50pm 8ft 8s 6s 18 20 mph 1009.1mb 51f 51f
2:50pm 7.5ft 9s 6s 16 18 mph 1008.5mb 51f 50f
1:50pm 9ft 9s 7s 16 22 mph 1007.9mb 51f 50f
12:50pm 8ft 8s 6s 18 22 mph 1007.5mb 51f 50f
11:50am 8.5ft 9s 7s 20 27 mph 1007.4mb 51f 51f
10:50am 9ft 9s 7s 20 22 mph 1007.2mb 51f 50f
9:50am 7.5ft 9s 6s 20 27 mph 1006.7mb 51f 50f
8:50am 8.5ft 9s 6s 22 27 mph 1006.5mb 52f 50f
7:50am 8.5ft 10s 6s 22 27 mph 1006mb 52f 50f
6:50am 9ft 9s 6s 25 29 mph 1005.3mb 52f 51f
5:50am 9.5ft 10s 6s 22 27 mph 1004.8mb 52f 51f
4:50am 8.5ft 9s 6s 22 27 mph 1004mb 52f 51f
3:50am 8.5ft 8s 6s 25 29 mph 1003.4mb 52f 51f
2:50am 9ft 9s 6s 22 27 mph 1003mb 52f 50f
1:50am 10ft 9s 6s 25 29 mph 1002.4mb 52f 51f
12:50am 9ft 9s 6s 25 27 mph 1002mb 52f 51f
Thu 09/18 11:50pm 10ft 9s 7s 22 27 mph 1002mb 52f 49f
10:50pm 10ft 8s 7s 25 29 mph 1001.7mb 52f 50f
9:50pm 10ft 8s 6s 25 29 mph 1001.5mb 52f 50f
8:50pm 9ft 8s 6s 25 29 mph 1001.1mb 52f 51f
7:50pm 8.5ft 9s 6s 27 31 mph 1000.8mb 52f 50f
6:50pm 8ft 9s 6s 25 29 mph 1000.6mb 52f 50f
5:50pm 8ft 8s 6s 25 29 mph 1000.4mb 52f 49f
4:50pm 7.5ft 8s 6s 27 31 mph 1000mb 52f 49f
3:50pm 7ft 7s 6s 25 29 mph 1000mb 52f 51f
2:50pm 7ft 8s 6s 22 27 mph 1000.5mb 52f 49f
1:50pm 8ft 8s 6s 22 27 mph 1000.7mb 52f 50f
12:50pm 7.5ft 8s 6s 20 25 mph 1001.1mb 52f 50f
11:50am 7ft 8s 6s 22 27 mph 1001.2mb 52f 50f
10:50am 7ft 8s 6s 22 27 mph 1001.3mb 52f 51f
9:50am 7ft 8s 6s 22 29 mph 1001.3mb 52f 51f
8:50am 7ft 8s 6s 18 22 mph 1001.3mb 52f 51f
7:50am 6.5ft 8s 6s 20 25 mph 1000.9mb 52f 51f
6:50am 6ft 7s 5s 20 25 mph 1000.7mb 52f 51f
5:50am 5.5ft 8s 5s 20 25 mph 1000.3mb 52f 51f
4:50am 5.5ft 8s 5s 22 25 mph 999.6mb 52f 52f
3:50am 5ft 8s 5s 20 22 mph 999.3mb 52f 52f
2:50am 5ft 8s 5s 20 25 mph 998.9mb 52f 52f
1:50am 4.5ft 8s 5s 20 22 mph 998.8mb 52f 52f
12:50am 4.5ft 8s 5s 20 22 mph 998.6mb 52f 52f
Wed 09/17 11:50pm 4ft 8s 5s 18 20 mph 998.5mb 52f 52f
10:50pm 3.5ft 8s 5s 18 22 mph 998.3mb 52f 52f
9:50pm 3ft 8s 5s 13 16 mph 998.4mb 52f 51f
8:50pm 2.5ft 8s 5s 13 16 mph 998.4mb 52f 51f
7:50pm 2.5ft 19s 5s 9 11 mph 998.4mb 52f 51f
6:50pm 2.5ft 11s 5s 7
mph
998.2mb 52f 51f
5:50pm 2.5ft 19s 5s 7
mph
998mb 52f 49f
4:50pm 2.5ft 19s 5s 9
mph
997.7mb 52f 50f
3:50pm 2.5ft 19s 5s 11
mph
997.6mb 52f 51f
2:50pm 2.5ft 19s 5s 9 11 mph 997.7mb 52f 51f
1:50pm 2.5ft 19s 5s 9 11 mph 997.9mb 52f 51f
12:50pm 2.5ft 19s 5s 11 13 mph 998.1mb 52f 51f
11:50am 2.5ft 19s 5s 11 13 mph 998.3mb 52f 51f
10:50am 2.5ft 19s 5s 11 13 mph 998.3mb 52f 51f
9:50am 2.5ft 19s 5s 9 11 mph 998.5mb 52f 51f
8:50am 3ft 5s 5s 9 11 mph 998.7mb 52f 51f
7:50am 2.5ft 8s 4s 9 11 mph 998.7mb 52f 51f
6:50am 2.5ft 5s 5s 9 11 mph 998.6mb 52f 51f
5:50am 2.5ft 6s 5s 9 11 mph 998.5mb 52f 51f
4:50am 2.5ft 5s 4s 13 16 mph 998.1mb 52f 52f
3:50am 2.5ft 5s 4s 13 16 mph 998.1mb 52f 52f
2:50am 3ft 6s 4s 13 16 mph 998.1mb 52f 52f
1:50am 3ft 19s 5s 13 16 mph 998.5mb 52f 52f
12:50am 3ft 6s 5s 13 16 mph 998.9mb 52f 52f
Tue 09/16 11:50pm 3ft 5s 5s 13 16 mph 999.2mb 52f 52f
10:50pm 2.5ft 6s 4s 13 16 mph 999.5mb 52f 52f
9:50pm 2.5ft 6s 4s 13 18 mph 999.5mb 52f 52f
8:50pm 2.5ft 6s 4s 13 16 mph 999.2mb 52f 51f
7:50pm 2.5ft 5s 4s 13 16 mph 999.2mb 52f 51f
6:50pm 2.5ft 6s 4s 13 16 mph 999mb 52f 51f
5:50pm 2.5ft 6s 4s 11 13 mph 999mb 52f 50f
4:50pm 3ft 6s 4s 11 16 mph 998.8mb 52f 50f
3:50pm 3ft 6s 4s 9 13 mph 998.6mb 52f 50f
2:50pm 2.5ft 6s 5s 9 11 mph 998.6mb 52f 50f
1:50pm 2.5ft 5s 5s 9 11 mph 998.6mb 52f 50f
12:50pm 2.5ft 7s 5s 9
mph
998.7mb 52f 49f
11:50am 2.5ft 6s 5s 4 7 mph 998.9mb 52f 49f
10:50am 2.5ft 5s 5s 7
mph
999.2mb 52f 49f
9:50am 2.5ft 7s 5s 9
mph
999.3mb 52f 49f
8:50am 2.5ft 7s 5s 9 11 mph 999.2mb 52f 50f
7:50am 3ft 6s 5s 9 11 mph 999.1mb 52f 50f
6:50am 3ft 6s 5s 9 11 mph 999mb 52f 50f
5:50am 3ft 6s 5s 9 11 mph 998.7mb 52f 50f
4:50am 3.5ft 7s 5s 7 9 mph 998.6mb 52f 50f
3:50am 3ft 6s 5s 4 7 mph 998.8mb 52f 50f
2:50am 3.5ft 7s 5s 4 7 mph 998.9mb 52f 49f
1:50am 3.5ft 7s 5s 7
mph
999.1mb 52f 49f
12:50am 3.5ft 7s 5s 7
mph
999.5mb 52f 50f
Mon 09/15 11:50pm 3.5ft 8s 5s 9 11 mph 1000.2mb 52f 50f
10:50pm 3.5ft 7s 5s 7 9 mph 1001mb 52f 50f
9:50pm 3.5ft 8s 6s 9 11 mph 1001.7mb 52f 50f
8:50pm 4ft 8s 5s 11
mph
1002.1mb 52f 50f